createdAt,value
2018-10-01T00:00:18.800Z,5.50
2018-10-01T00:02:48.074Z,5.17
2018-10-01T00:05:17.538Z,5.50
2018-10-01T00:07:49.143Z,5.37
2018-10-01T00:10:19.589Z,5.60
2018-10-01T00:12:48.944Z,5.90
2018-10-01T00:15:18.208Z,5.67
2018-10-01T00:17:51.210Z,6.47
2018-10-01T00:20:25.698Z,6.07
2018-10-01T00:22:57.744Z,5.43
2018-10-01T00:25:30.839Z,5.30
2018-10-01T00:28:00.906Z,7.17
2018-10-01T00:30:30.687Z,5.67
2018-10-01T00:32:59.804Z,5.23
2018-10-01T00:35:31.326Z,6.43
2018-10-01T00:38:00.671Z,4.90
2018-10-01T00:40:30.994Z,5.33
2018-10-01T00:43:01.486Z,5.70
2018-10-01T00:45:30.712Z,5.63
2018-10-01T00:48:00.025Z,5.17
2018-10-01T00:50:29.663Z,5.00
2018-10-01T00:52:58.758Z,5.50
2018-10-01T00:55:28.062Z,5.50
2018-10-01T00:57:57.308Z,5.53
2018-10-01T01:00:27.539Z,5.23
2018-10-01T01:02:56.675Z,5.50
2018-10-01T01:05:26.121Z,6.30
2018-10-01T01:07:55.322Z,6.23
2018-10-01T01:10:25.363Z,6.00
2018-10-01T01:12:55.765Z,6.20
2018-10-01T01:15:26.129Z,7.23
2018-10-01T01:17:56.177Z,7.40
2018-10-01T01:20:26.793Z,8.93
2018-10-01T01:22:56.933Z,7.73
2018-10-01T01:25:26.385Z,7.90
2018-10-01T01:27:55.677Z,7.63
2018-10-01T01:30:24.814Z,7.93
2018-10-01T01:32:53.893Z,7.33
2018-10-01T01:35:23.697Z,7.23
2018-10-01T01:37:53.188Z,6.83
2018-10-01T01:40:22.863Z,6.80
2018-10-01T01:42:53.276Z,6.60
2018-10-01T01:45:23.052Z,5.73
2018-10-01T01:47:53.744Z,6.10
2018-10-01T01:50:23.005Z,5.43
2018-10-01T01:52:52.426Z,4.77
2018-10-01T01:55:21.660Z,4.93
2018-10-01T01:57:50.916Z,4.60
2018-10-01T02:00:20.185Z,4.63
2018-10-01T02:02:50.092Z,4.40
2018-10-01T02:05:19.219Z,4.67
2018-10-01T02:07:48.512Z,4.77
2018-10-01T02:10:18.066Z,4.10
2018-10-01T02:12:50.818Z,4.23
2018-10-01T02:15:20.194Z,4.10
2018-10-01T02:17:49.386Z,4.50
2018-10-01T02:20:18.506Z,4.50
2018-10-01T02:22:48.145Z,4.20
2018-10-01T02:25:17.309Z,3.80
2018-10-01T02:27:47.280Z,3.97
2018-10-01T02:30:16.516Z,4.40
2018-10-01T02:32:47.022Z,3.97
2018-10-01T02:35:17.122Z,4.17
2018-10-01T02:37:46.491Z,4.27
2018-10-01T02:40:15.981Z,4.13
2018-10-01T02:42:45.085Z,4.40
2018-10-01T02:45:14.570Z,4.40
2018-10-01T02:47:44.124Z,4.87
2018-10-01T02:50:13.265Z,4.47
2018-10-01T02:53:48.856Z,4.13
2018-10-01T02:56:18.342Z,5.40
2018-10-01T02:58:47.660Z,4.07
2018-10-01T03:01:16.790Z,4.20
2018-10-01T03:03:45.911Z,3.90
2018-10-01T03:06:15.123Z,4.13
2018-10-01T03:08:44.580Z,4.43
2018-10-01T03:11:14.054Z,4.00
2018-10-01T03:13:43.393Z,4.47
2018-10-01T03:16:12.843Z,3.67
2018-10-01T03:18:41.937Z,3.90
2018-10-01T03:21:11.574Z,3.60
2018-10-01T03:23:40.856Z,3.50
2018-10-01T03:26:10.295Z,3.73
2018-10-01T03:28:39.519Z,4.30
2018-10-01T03:31:08.806Z,3.67
2018-10-01T03:33:40.406Z,3.87
2018-10-01T03:36:09.975Z,3.87
2018-10-01T03:38:41.102Z,3.53
2018-10-01T03:41:10.606Z,3.47
2018-10-01T03:43:39.823Z,3.90
2018-10-01T03:46:09.093Z,4.67
2018-10-01T03:48:38.418Z,5.33
2018-10-01T03:51:08.321Z,4.57
2018-10-01T03:53:37.432Z,5.47
2018-10-01T03:56:06.572Z,5.33
2018-10-01T03:58:36.397Z,5.07
2018-10-01T04:01:06.163Z,5.63
2018-10-01T04:03:36.165Z,6.10
2018-10-01T04:06:05.538Z,5.70
2018-10-01T04:08:34.726Z,5.27
2018-10-01T04:11:04.057Z,5.13
2018-10-01T04:13:34.100Z,5.43
2018-10-01T04:16:03.264Z,5.50
2018-10-01T04:18:32.524Z,5.53
2018-10-01T04:21:01.679Z,5.70
2018-10-01T04:23:34.852Z,5.90
2018-10-01T04:26:04.069Z,5.47
2018-10-01T04:28:34.238Z,6.33
2018-10-01T04:31:03.513Z,5.50
2018-10-01T04:33:33.049Z,5.23
2018-10-01T04:36:03.477Z,5.77
2018-10-01T04:38:32.798Z,5.47
2018-10-01T04:41:02.613Z,5.63
2018-10-01T04:43:33.799Z,4.87
2018-10-01T04:46:03.352Z,5.63
2018-10-01T04:48:33.211Z,5.83
2018-10-01T04:51:03.618Z,5.40
2018-10-01T04:53:38.218Z,5.90
2018-10-01T04:56:07.380Z,5.00
2018-10-01T04:58:36.848Z,5.63
2018-10-01T05:01:07.452Z,5.60
2018-10-01T05:03:36.946Z,5.60
2018-10-01T05:06:06.993Z,5.90
2018-10-01T05:08:37.725Z,6.13
2018-10-01T05:11:06.983Z,5.90
2018-10-01T05:13:37.672Z,6.07
2018-10-01T05:16:07.791Z,6.37
2018-10-01T05:18:41.467Z,6.60
2018-10-01T05:21:11.580Z,5.87
2018-10-01T05:23:41.981Z,6.47
2018-10-01T05:26:11.891Z,6.20
2018-10-01T05:30:13.255Z,5.90
2018-10-01T05:32:44.344Z,7.65
2018-10-01T05:35:13.639Z,8.13
2018-10-01T05:37:43.078Z,8.75
2018-10-01T05:40:12.837Z,8.98
2018-10-01T05:42:43.259Z,7.20
2018-10-01T05:45:14.805Z,6.33
2018-10-01T05:47:45.073Z,5.80
2018-10-01T05:50:14.777Z,5.17
2018-10-01T05:52:45.510Z,5.33
2018-10-01T05:55:14.890Z,5.07
2018-10-01T05:57:44.755Z,5.50
2018-10-01T06:00:20.737Z,5.37
2018-10-01T06:02:50.788Z,5.20
2018-10-01T06:05:23.085Z,5.90
2018-10-01T06:07:53.964Z,6.53
2018-10-01T06:10:27.113Z,6.03
2018-10-01T06:13:04.088Z,5.60
2018-10-01T06:15:34.535Z,5.17
2018-10-01T06:18:03.784Z,6.13
2018-10-01T06:20:41.137Z,5.20
2018-10-01T06:23:20.592Z,5.43
2018-10-01T06:25:58.912Z,5.60
2018-10-01T06:28:37.547Z,5.80
2018-10-01T06:31:16.135Z,5.55
2018-10-01T06:33:54.579Z,5.40
2018-10-01T06:36:31.657Z,5.40
2018-10-01T06:39:20.485Z,5.33
2018-10-01T06:41:58.433Z,5.53
2018-10-01T06:44:34.284Z,5.03
2018-10-01T06:47:15.634Z,5.07
2018-10-01T06:49:52.483Z,4.70
2018-10-01T06:52:27.774Z,5.23
2018-10-01T06:54:58.632Z,4.87
2018-10-01T06:57:34.464Z,5.73
2018-10-01T07:00:09.580Z,5.10
2018-10-01T07:02:45.631Z,5.53
2018-10-01T07:05:24.953Z,5.23
2018-10-01T07:07:54.441Z,5.80
2018-10-01T07:10:25.971Z,5.70
2018-10-01T07:13:04.211Z,5.37
2018-10-01T07:15:41.256Z,4.77
2018-10-01T07:18:15.353Z,4.80
2018-10-01T07:20:53.968Z,5.70
2018-10-01T07:23:24.181Z,5.17
2018-10-01T07:26:01.607Z,5.20
2018-10-01T07:28:31.744Z,6.40
2018-10-01T07:31:07.168Z,5.33
2018-10-01T07:33:37.590Z,5.17
2018-10-01T07:36:07.510Z,4.30
2018-10-01T07:38:37.732Z,4.40
2018-10-01T07:41:10.101Z,4.90
2018-10-01T07:43:39.779Z,4.10
2018-10-01T07:46:11.852Z,4.43
2018-10-01T07:49:03.859Z,4.57
2018-10-01T07:51:35.465Z,4.73
2018-10-01T07:54:10.433Z,5.10
2018-10-01T07:56:42.630Z,5.60
2018-10-01T07:59:13.001Z,4.40
2018-10-01T08:01:51.592Z,6.30
2018-10-01T08:04:25.319Z,4.03
2018-10-01T08:07:06.411Z,4.60
2018-10-01T08:09:44.701Z,4.07
2018-10-01T08:15:00.041Z,3.87
2018-10-01T08:17:30.774Z,3.77
2018-10-01T08:20:02.813Z,3.43
2018-10-01T08:22:46.100Z,3.40
2018-10-01T08:25:21.703Z,3.23
2018-10-01T08:27:54.767Z,2.67
2018-10-01T08:30:37.368Z,3.10
2018-10-01T08:33:17.788Z,2.93
2018-10-01T08:35:50.402Z,2.80
2018-10-01T08:38:20.760Z,2.47
2018-10-01T08:40:50.349Z,2.20
2018-10-01T08:43:21.012Z,2.30
2018-10-01T08:45:55.582Z,2.40
2018-10-01T08:48:27.345Z,2.20
2018-10-01T08:51:04.376Z,1.97
2018-10-01T08:53:42.228Z,1.80
2018-10-01T08:56:11.879Z,1.77
2018-10-01T08:58:41.592Z,1.40
2018-10-01T09:01:12.456Z,2.50
2018-10-01T09:03:45.884Z,1.80
2018-10-01T09:06:16.341Z,1.60
2018-10-01T09:08:50.293Z,1.60
2018-10-01T09:11:19.808Z,1.20
2018-10-01T09:20:38.425Z,1.30
2018-10-01T09:23:10.527Z,1.70
2018-10-01T09:25:42.942Z,1.50
2018-10-01T09:28:21.470Z,1.50
2018-10-01T09:30:57.162Z,2.20
2018-10-01T09:33:33.376Z,1.33
2018-10-01T09:36:15.634Z,1.53
2018-10-01T09:38:51.509Z,1.73
2018-10-01T09:41:24.297Z,1.80
2018-10-01T09:43:59.552Z,1.70
2018-10-01T09:46:36.075Z,1.50
2018-10-01T09:49:11.725Z,1.90
2018-10-01T09:51:56.159Z,1.40
2018-10-01T09:54:33.526Z,1.47
2018-10-01T09:57:13.470Z,1.27
2018-10-01T09:59:44.572Z,1.23
2018-10-01T10:02:27.537Z,1.40
2018-10-01T10:05:03.357Z,1.47
2018-10-01T10:07:50.936Z,1.27
2018-10-01T10:10:32.560Z,1.20
2018-10-01T10:13:16.747Z,1.50
2018-10-01T10:15:49.780Z,1.60
2018-10-01T10:18:22.313Z,1.40
2018-10-01T10:21:04.741Z,1.13
2018-10-01T10:23:43.487Z,1.17
2018-10-01T10:26:17.952Z,1.33
2018-10-01T10:29:00.589Z,1.10
2018-10-01T10:31:32.517Z,1.50
2018-10-01T10:34:12.040Z,1.33
2018-10-01T10:36:50.838Z,1.20
2018-10-01T10:39:24.920Z,1.10
2018-10-01T10:41:59.254Z,1.20
2018-10-01T10:49:58.379Z,1.20
2018-10-01T10:52:44.376Z,1.20
2018-10-01T10:55:14.617Z,1.13
2018-10-01T10:57:50.917Z,1.00
2018-10-01T11:00:22.865Z,1.20
2018-10-01T11:03:04.083Z,1.23
2018-10-01T11:05:37.925Z,1.10
2018-10-01T11:08:14.992Z,1.27
2018-10-01T11:10:50.602Z,1.27
2018-10-01T11:13:28.286Z,1.90
2018-10-01T11:15:58.056Z,1.43
2018-10-01T11:18:30.349Z,2.37
2018-10-01T11:21:01.059Z,2.40
2018-10-01T11:23:31.011Z,2.53
2018-10-01T11:28:57.256Z,1.90
2018-10-01T11:31:29.152Z,2.50
2018-10-01T11:34:07.187Z,1.80
2018-10-01T11:36:40.200Z,1.53
2018-10-01T11:39:15.909Z,1.50
2018-10-01T11:41:46.537Z,1.67
2018-10-01T11:44:18.564Z,1.80
2018-10-01T11:46:49.513Z,1.40
2018-10-01T11:49:20.214Z,1.40
2018-10-01T11:51:52.723Z,1.70
2018-10-01T11:54:23.010Z,1.80
2018-10-01T11:56:54.274Z,1.60
2018-10-01T11:59:29.164Z,1.27
2018-10-01T12:02:00.148Z,1.00
2018-10-01T12:04:33.419Z,1.63
2018-10-01T12:07:05.312Z,1.30
2018-10-01T12:09:39.828Z,1.23
2018-10-01T12:12:15.036Z,1.13
2018-10-01T12:14:48.763Z,1.40
2018-10-01T12:17:25.790Z,1.43
2018-10-01T12:19:55.750Z,1.23
2018-10-01T12:22:27.244Z,1.23
2018-10-01T12:27:44.891Z,1.20
2018-10-01T12:30:15.513Z,1.30
2018-10-01T12:32:47.218Z,1.70
2018-10-01T12:35:18.842Z,1.90
2018-10-01T13:49:13.372Z,2.50
2018-10-01T13:51:47.869Z,1.53
2018-10-01T13:54:38.062Z,1.90
2018-10-01T13:57:12.594Z,2.87
2018-10-01T14:01:07.613Z,2.27
2018-10-01T14:03:41.806Z,1.90
2018-10-01T14:06:14.582Z,2.63
2018-10-01T14:08:49.439Z,1.87
2018-10-01T14:11:24.912Z,2.00
2018-10-01T14:14:00.105Z,2.20
2018-10-01T14:16:40.350Z,2.43
2018-10-01T14:19:13.875Z,2.67
2018-10-01T14:21:46.873Z,2.90
2018-10-01T14:24:19.162Z,2.40
2018-10-01T14:26:54.990Z,2.30
2018-10-01T14:29:26.602Z,2.60
2018-10-01T14:31:55.708Z,2.50
2018-10-01T14:34:30.423Z,3.00
2018-10-01T14:37:07.821Z,2.50
2018-10-01T14:39:41.883Z,2.80
2018-10-01T14:42:15.246Z,3.07
2018-10-01T14:44:56.847Z,2.77
2018-10-01T14:47:38.296Z,3.17
2018-10-01T14:50:15.457Z,3.60
2018-10-01T14:52:46.998Z,2.40
2018-10-01T14:55:18.208Z,2.40
2018-10-01T14:57:47.556Z,2.63
2018-10-01T15:00:21.313Z,3.00
2018-10-01T15:02:50.127Z,2.83
2018-10-01T15:05:21.393Z,2.90
2018-10-01T15:07:51.319Z,2.93
2018-10-01T15:10:22.821Z,2.30
2018-10-01T15:12:56.050Z,2.33
2018-10-01T15:15:33.439Z,2.27
2018-10-01T15:18:07.257Z,2.50
2018-10-01T15:20:37.231Z,2.20
2018-10-01T15:23:06.087Z,2.47
2018-10-01T15:25:36.282Z,2.40
2018-10-01T15:28:07.852Z,2.20
2018-10-01T15:30:36.722Z,2.00
2018-10-01T15:33:10.012Z,2.37
2018-10-01T15:35:39.753Z,2.30
2018-10-01T15:38:12.586Z,2.07
2018-10-01T15:40:41.621Z,2.20
2018-10-01T15:43:10.981Z,2.37
2018-10-01T15:45:42.326Z,2.10
2018-10-01T15:48:12.212Z,2.20
2018-10-01T15:50:41.506Z,2.30
2018-10-01T15:53:13.615Z,2.50
2018-10-01T15:55:44.051Z,2.00
2018-10-01T15:58:14.106Z,2.40
2018-10-01T16:00:45.281Z,1.77
2018-10-01T16:03:16.406Z,2.47
2018-10-01T16:05:45.762Z,2.13
2018-10-01T16:08:16.692Z,2.27
2018-10-01T16:10:47.660Z,2.10
2018-10-01T16:13:18.219Z,2.83
2018-10-01T16:15:51.779Z,2.00
2018-10-01T16:18:21.481Z,1.97
2018-10-01T16:20:52.758Z,2.37
2018-10-01T16:23:22.557Z,2.00
2018-10-01T16:25:51.517Z,2.20
2018-10-01T16:28:20.611Z,1.63
2018-10-01T16:30:51.474Z,1.73
2018-10-01T16:33:20.192Z,1.83
2018-10-01T16:35:52.346Z,2.90
2018-10-01T16:38:23.547Z,1.63
2018-10-01T16:40:53.728Z,1.10
2018-10-01T16:43:23.034Z,1.60
2018-10-01T16:45:52.639Z,1.10
2018-10-01T16:48:21.579Z,1.37
2018-10-01T16:50:53.060Z,1.43
2018-10-01T16:53:26.827Z,1.20
2018-10-01T16:55:56.847Z,1.57
2018-10-01T16:58:29.291Z,1.43
2018-10-01T17:01:03.656Z,1.87
2018-10-01T17:03:33.438Z,1.57
2018-10-01T17:06:04.530Z,1.50
2018-10-01T17:08:33.177Z,2.10
2018-10-01T17:11:03.711Z,1.23
2018-10-01T17:13:33.724Z,1.40
2018-10-01T17:16:04.142Z,1.70
2018-10-01T17:18:34.900Z,1.27
2018-10-01T17:21:05.917Z,1.60
2018-10-01T17:23:38.320Z,1.57
2018-10-01T17:26:09.353Z,1.20
2018-10-01T17:28:40.125Z,2.20
2018-10-01T17:31:12.634Z,2.00
2018-10-01T17:33:46.581Z,1.47
2018-10-01T17:36:16.244Z,1.90
2018-10-01T17:38:45.844Z,1.50
2018-10-01T17:41:17.503Z,2.30
2018-10-01T17:43:50.047Z,1.87
2018-10-01T17:46:21.383Z,2.13
2018-10-01T17:48:52.447Z,1.30
2018-10-01T17:51:22.507Z,2.40
2018-10-01T17:53:51.962Z,2.57
2018-10-01T17:56:21.414Z,2.50
2018-10-01T17:58:52.784Z,2.50
2018-10-01T18:01:23.563Z,2.17
2018-10-01T18:03:54.362Z,2.00
2018-10-01T18:06:25.395Z,2.20
2018-10-01T18:08:59.472Z,2.53
2018-10-01T18:11:30.463Z,2.10
2018-10-01T18:13:59.664Z,2.00
2018-10-01T18:16:33.029Z,2.00
2018-10-01T18:19:02.712Z,2.20
2018-10-01T18:21:38.991Z,2.00
2018-10-01T18:24:09.224Z,2.03
2018-10-01T18:26:39.484Z,1.80
2018-10-01T18:29:11.094Z,1.87
2018-10-01T18:31:40.740Z,2.30
2018-10-01T18:34:11.275Z,2.33
2018-10-01T18:36:58.397Z,2.20
2018-10-01T18:39:31.166Z,2.03
2018-10-01T18:42:00.103Z,1.60
2018-10-01T18:44:29.231Z,2.10
2018-10-01T18:47:06.665Z,2.50
2018-10-01T18:49:36.329Z,2.30
2018-10-01T18:54:43.846Z,2.00
2018-10-01T18:57:15.615Z,2.33
2018-10-01T18:59:51.702Z,2.50
2018-10-01T19:02:22.245Z,2.17
2018-10-01T19:04:52.562Z,2.10
2018-10-01T19:07:37.093Z,1.90
2018-10-01T19:10:09.627Z,1.67
2018-10-01T19:12:38.662Z,3.10
2018-10-01T19:15:12.691Z,2.30
2018-10-01T19:17:43.702Z,2.03
2018-10-01T19:20:13.639Z,2.13
2018-10-01T19:22:44.690Z,2.40
2018-10-01T19:25:17.899Z,1.93
2018-10-01T19:27:50.790Z,1.80
2018-10-01T19:30:21.687Z,2.27
2018-10-01T19:32:51.476Z,1.97
2018-10-01T19:35:21.638Z,1.80
2018-10-01T19:37:58.747Z,2.23
2018-10-01T19:40:32.742Z,2.83
2018-10-01T19:43:01.612Z,2.60
2018-10-01T19:45:31.382Z,1.93
2018-10-01T19:48:00.556Z,2.50
2018-10-01T19:50:33.615Z,2.63
2018-10-01T19:53:02.301Z,2.50
2018-10-01T19:55:32.093Z,2.27
2018-10-01T19:58:03.569Z,2.30
2018-10-01T20:00:32.722Z,2.77
2018-10-01T20:03:01.625Z,2.43
2018-10-01T20:05:32.296Z,2.80
2018-10-01T20:08:03.146Z,2.47
2018-10-01T20:10:33.201Z,1.93
2018-10-01T20:13:03.503Z,2.03
2018-10-01T20:15:33.096Z,1.77
2018-10-01T20:18:04.092Z,2.10
2018-10-01T20:20:33.719Z,2.43
2018-10-01T20:23:03.269Z,2.03
2018-10-01T20:25:32.692Z,2.47
2018-10-01T20:28:02.612Z,2.20
2018-10-01T20:30:33.711Z,2.33
2018-10-01T20:33:02.738Z,2.07
2018-10-01T20:35:32.304Z,2.57
2018-10-01T20:38:06.363Z,2.20
2018-10-01T20:40:37.460Z,2.77
2018-10-01T20:43:06.967Z,2.50
2018-10-01T20:45:36.630Z,2.27
2018-10-01T20:48:05.990Z,2.13
2018-10-01T20:50:34.918Z,2.50
2018-10-01T20:53:03.795Z,2.70
2018-10-01T20:55:32.756Z,2.17
2018-10-01T20:58:01.353Z,2.60
2018-10-01T21:00:31.579Z,2.60
2018-10-01T21:03:00.598Z,1.87
2018-10-01T21:05:31.484Z,2.53
2018-10-01T21:08:01.790Z,2.77
2018-10-01T21:10:32.391Z,2.20
2018-10-01T21:13:02.411Z,2.20
2018-10-01T21:15:34.259Z,2.33
2018-10-01T21:18:03.608Z,2.53
2018-10-01T21:20:33.887Z,2.53
2018-10-01T21:23:05.522Z,2.43
2018-10-01T21:25:37.005Z,2.70
2018-10-01T21:28:08.378Z,1.97
2018-10-01T21:30:38.450Z,2.10
2018-10-01T21:33:08.093Z,2.10
2018-10-01T21:35:38.813Z,2.43
2018-10-01T21:38:11.296Z,2.77
2018-10-01T21:40:41.464Z,1.93
2018-10-01T21:43:11.410Z,1.83
2018-10-01T21:45:42.188Z,2.60
2018-10-01T21:48:14.113Z,2.47
2018-10-01T21:50:44.035Z,2.50
2018-10-01T21:53:12.694Z,2.23
2018-10-01T21:55:41.341Z,2.13
2018-10-01T21:58:10.066Z,3.57
2018-10-01T22:00:44.609Z,2.17
2018-10-01T22:03:14.119Z,2.00
2018-10-01T22:05:44.446Z,2.10
2018-10-01T22:08:13.184Z,2.00
2018-10-01T22:10:43.714Z,1.97
2018-10-01T22:13:12.557Z,2.30
2018-10-01T22:15:45.893Z,2.27
2018-10-01T22:18:17.769Z,2.63
2018-10-01T22:20:47.414Z,1.77
2018-10-01T22:23:17.207Z,1.93
2018-10-01T22:25:46.140Z,1.70
2018-10-01T22:28:17.657Z,1.87
2018-10-01T22:30:46.308Z,2.37
2018-10-01T22:33:16.646Z,1.60
2018-10-01T22:35:47.284Z,1.90
2018-10-01T22:38:16.072Z,3.20
2018-10-01T22:40:48.938Z,2.00
2018-10-01T22:43:18.386Z,1.93
2018-10-01T22:45:48.134Z,2.30
2018-10-01T22:48:16.807Z,1.40
2018-10-01T22:50:48.986Z,1.97
2018-10-01T22:53:18.345Z,1.60
2018-10-01T22:55:47.266Z,1.70
2018-10-01T22:58:18.036Z,1.80
2018-10-01T23:00:48.050Z,1.83
2018-10-01T23:03:18.109Z,1.93
2018-10-01T23:05:46.805Z,2.03
2018-10-01T23:08:15.693Z,2.03
2018-10-01T23:10:44.288Z,1.50
2018-10-01T23:13:12.941Z,2.00
2018-10-01T23:15:41.821Z,2.03
2018-10-01T23:18:11.147Z,2.10
2018-10-01T23:20:40.617Z,1.80
2018-10-01T23:23:09.366Z,1.73
2018-10-01T23:25:38.464Z,1.70
2018-10-01T23:28:07.033Z,1.47
2018-10-01T23:30:35.796Z,1.77
2018-10-01T23:33:04.408Z,2.33
2018-10-01T23:35:37.719Z,1.80
2018-10-01T23:38:07.190Z,2.17
2018-10-01T23:40:36.412Z,2.00
2018-10-01T23:43:05.175Z,2.40
2018-10-01T23:45:35.604Z,1.70
2018-10-01T23:48:04.663Z,2.13
2018-10-01T23:50:35.177Z,2.00
2018-10-01T23:53:04.583Z,1.83
2018-10-01T23:55:34.201Z,2.03
2018-10-01T23:58:03.743Z,2.23
